Terminal Aerodrome Forecast
Issued by NWS Bismarck, ND

Home | Current Version | Previous Version | Text Only | Print | Product List | Glossary On
Versions: 1 2 3 4 5 6 7 8 9 10 11 12 13 14 15 16 17
000
FTUS43 KBIS 240229 AAA
TAFISN
TAF AMD
KISN 240229Z 2402/2424 29012KT P6SM FEW080 FEW250 WS020/33035KT
     FM240600 27013KT P6SM FEW150 FEW250=

USA.gov is the U.S. government's official web portal to all federal, state and local government web resources and services.